sensor_id;sensor_type;location;lat;lon;timestamp;P1;P2;P0
64138;PMS5003;50435;43.700;-79.318;2024-03-23T00:51:35;4;4;
64138;PMS5003;50435;43.700;-79.318;2024-03-23T00:54:03;3;3;
64138;PMS5003;50435;43.700;-79.318;2024-03-23T00:56:30;2;2;
64138;PMS5003;50435;43.700;-79.318;2024-03-23T00:58:57;3;2;
64138;PMS5003;50435;43.700;-79.318;2024-03-23T01:01:25;3;3;
64138;PMS5003;50435;43.700;-79.318;2024-03-23T01:03:52;3;3;
64138;PMS5003;50435;43.700;-79.318;2024-03-23T01:06:20;4;4;
64138;PMS5003;50435;43.700;-79.318;2024-03-23T01:08:47;2;2;
64138;PMS5003;50435;43.700;-79.318;2024-03-23T01:11:15;3;3;
64138;PMS5003;50435;43.700;-79.318;2024-03-23T01:13:42;4;4;
64138;PMS5003;50435;43.700;-79.318;2024-03-23T01:16:10;3;3;
64138;PMS5003;50435;43.700;-79.318;2024-03-23T01:18:37;6;4;
64138;PMS5003;50435;43.700;-79.318;2024-03-23T01:21:04;4;4;
64138;PMS5003;50435;43.700;-79.318;2024-03-23T01:23:32;4;3;
64138;PMS5003;50435;43.700;-79.318;2024-03-23T01:25:59;4;2;
64138;PMS5003;50435;43.700;-79.318;2024-03-23T01:28:27;6;3;
64138;PMS5003;50435;43.700;-79.318;2024-03-23T01:30:55;3;3;
64138;PMS5003;50435;43.700;-79.318;2024-03-23T01:33:22;3;3;
64138;PMS5003;50435;43.700;-79.318;2024-03-23T01:35:49;3;3;
64138;PMS5003;50435;43.700;-79.318;2024-03-23T01:38:17;4;3;
64138;PMS5003;50435;43.700;-79.318;2024-03-23T01:40:44;3;3;
64138;PMS5003;50435;43.700;-79.318;2024-03-23T01:43:12;4;3;
64138;PMS5003;50435;43.700;-79.318;2024-03-23T01:45:39;4;4;
64138;PMS5003;50435;43.700;-79.318;2024-03-23T01:48:07;6;6;
64138;PMS5003;50435;43.700;-79.318;2024-03-23T01:50:34;3;3;
64138;PMS5003;50435;43.700;-79.318;2024-03-23T01:53:01;2;2;
64138;PMS5003;50435;43.700;-79.318;2024-03-23T01:55:31;2;2;
64138;PMS5003;50435;43.700;-79.318;2024-03-23T01:57:59;3;3;
64138;PMS5003;50435;43.700;-79.318;2024-03-23T02:00:26;3;3;
64138;PMS5003;50435;43.700;-79.318;2024-03-23T02:02:54;4;2;
64138;PMS5003;50435;43.700;-79.318;2024-03-23T02:05:21;3;3;
64138;PMS5003;50435;43.700;-79.318;2024-03-23T02:07:49;3;3;
64138;PMS5003;50435;43.700;-79.318;2024-03-23T02:10:18;3;3;
64138;PMS5003;50435;43.700;-79.318;2024-03-23T02:12:45;3;3;
64138;PMS5003;50435;43.700;-79.318;2024-03-23T02:15:13;3;3;
64138;PMS5003;50435;43.700;-79.318;2024-03-23T02:17:40;6;4;
64138;PMS5003;50435;43.700;-79.318;2024-03-23T02:20:08;3;3;
64138;PMS5003;50435;43.700;-79.318;2024-03-23T02:22:38;3;3;
64138;PMS5003;50435;43.700;-79.318;2024-03-23T02:25:06;6;6;
64138;PMS5003;50435;43.700;-79.318;2024-03-23T02:27:34;3;3;
64138;PMS5003;50435;43.700;-79.318;2024-03-23T02:30:01;3;3;
64138;PMS5003;50435;43.700;-79.318;2024-03-23T02:32:29;4;3;
64138;PMS5003;50435;43.700;-79.318;2024-03-23T02:34:56;3;3;
64138;PMS5003;50435;43.700;-79.318;2024-03-23T02:37:23;3;3;
64138;PMS5003;50435;43.700;-79.318;2024-03-23T02:39:51;4;4;
64138;PMS5003;50435;43.700;-79.318;2024-03-23T02:42:18;6;6;
64138;PMS5003;50435;43.700;-79.318;2024-03-23T02:44:46;4;3;
64138;PMS5003;50435;43.700;-79.318;2024-03-23T02:47:13;3;3;
64138;PMS5003;50435;43.700;-79.318;2024-03-23T02:49:41;3;3;
64138;PMS5003;50435;43.700;-79.318;2024-03-23T02:52:08;7;4;
64138;PMS5003;50435;43.700;-79.318;2024-03-23T02:54:36;3;3;
64138;PMS5003;50435;43.700;-79.318;2024-03-23T02:57:03;6;6;
64138;PMS5003;50435;43.700;-79.318;2024-03-23T02:59:31;7;6;
64138;PMS5003;50435;43.700;-79.318;2024-03-23T03:01:58;8;8;
64138;PMS5003;50435;43.700;-79.318;2024-03-23T03:04:26;6;6;
64138;PMS5003;50435;43.700;-79.318;2024-03-23T03:06:53;6;6;
64138;PMS5003;50435;43.700;-79.318;2024-03-23T03:09:21;6;6;
64138;PMS5003;50435;43.700;-79.318;2024-03-23T03:11:48;4;4;
64138;PMS5003;50435;43.700;-79.318;2024-03-23T03:14:15;3;3;
64138;PMS5003;50435;43.700;-79.318;2024-03-23T03:16:43;6;6;
64138;PMS5003;50435;43.700;-79.318;2024-03-23T03:19:10;6;6;
64138;PMS5003;50435;43.700;-79.318;2024-03-23T03:21:38;7;7;
64138;PMS5003;50435;43.700;-79.318;2024-03-23T03:24:06;6;6;
64138;PMS5003;50435;43.700;-79.318;2024-03-23T03:26:34;8;6;
64138;PMS5003;50435;43.700;-79.318;2024-03-23T03:29:01;4;4;
64138;PMS5003;50435;43.700;-79.318;2024-03-23T03:31:29;4;4;
64138;PMS5003;50435;43.700;-79.318;2024-03-23T03:33:57;6;4;
64138;PMS5003;50435;43.700;-79.318;2024-03-23T03:36:24;6;6;
64138;PMS5003;50435;43.700;-79.318;2024-03-23T03:38:52;4;4;
64138;PMS5003;50435;43.700;-79.318;2024-03-23T03:41:19;6;6;
64138;PMS5003;50435;43.700;-79.318;2024-03-23T03:43:47;7;6;
64138;PMS5003;50435;43.700;-79.318;2024-03-23T03:46:14;6;6;
64138;PMS5003;50435;43.700;-79.318;2024-03-23T03:48:42;7;6;
64138;PMS5003;50435;43.700;-79.318;2024-03-23T03:51:09;4;4;
64138;PMS5003;50435;43.700;-79.318;2024-03-23T03:53:36;7;6;
64138;PMS5003;50435;43.700;-79.318;2024-03-23T03:56:04;6;6;
64138;PMS5003;50435;43.700;-79.318;2024-03-23T03:58:31;4;4;
64138;PMS5003;50435;43.700;-79.318;2024-03-23T04:00:59;7;7;
64138;PMS5003;50435;43.700;-79.318;2024-03-23T04:03:26;8;7;
64138;PMS5003;50435;43.700;-79.318;2024-03-23T04:05:54;6;6;
64138;PMS5003;50435;43.700;-79.318;2024-03-23T04:08:21;7;6;
64138;PMS5003;50435;43.700;-79.318;2024-03-23T04:10:49;7;6;
64138;PMS5003;50435;43.700;-79.318;2024-03-23T04:13:16;3;3;
64138;PMS5003;50435;43.700;-79.318;2024-03-23T04:15:44;4;4;
64138;PMS5003;50435;43.700;-79.318;2024-03-23T04:18:11;7;7;
64138;PMS5003;50435;43.700;-79.318;2024-03-23T04:20:39;4;4;
64138;PMS5003;50435;43.700;-79.318;2024-03-23T04:23:06;4;4;
64138;PMS5003;50435;43.700;-79.318;2024-03-23T04:25:34;4;4;
64138;PMS5003;50435;43.700;-79.318;2024-03-23T04:28:01;4;4;
64138;PMS5003;50435;43.700;-79.318;2024-03-23T04:30:29;6;4;
64138;PMS5003;50435;43.700;-79.318;2024-03-23T04:32:56;4;4;
64138;PMS5003;50435;43.700;-79.318;2024-03-23T04:35:24;3;3;
64138;PMS5003;50435;43.700;-79.318;2024-03-23T04:37:51;6;6;
64138;PMS5003;50435;43.700;-79.318;2024-03-23T04:40:19;7;6;
64138;PMS5003;50435;43.700;-79.318;2024-03-23T04:42:47;3;3;
64138;PMS5003;50435;43.700;-79.318;2024-03-23T04:45:14;6;6;
64138;PMS5003;50435;43.700;-79.318;2024-03-23T04:47:42;7;6;
64138;PMS5003;50435;43.700;-79.318;2024-03-23T04:50:09;4;4;
64138;PMS5003;50435;43.700;-79.318;2024-03-23T04:52:37;3;3;
64138;PMS5003;50435;43.700;-79.318;2024-03-23T04:55:04;3;3;
64138;PMS5003;50435;43.700;-79.318;2024-03-23T04:57:32;4;4;
64138;PMS5003;50435;43.700;-79.318;2024-03-23T04:59:59;3;3;
64138;PMS5003;50435;43.700;-79.318;2024-03-23T05:02:26;3;3;
64138;PMS5003;50435;43.700;-79.318;2024-03-23T05:04:54;2;2;
64138;PMS5003;50435;43.700;-79.318;2024-03-23T05:07:21;3;3;
64138;PMS5003;50435;43.700;-79.318;2024-03-23T05:09:49;2;2;
64138;PMS5003;50435;43.700;-79.318;2024-03-23T05:12:16;3;3;
64138;PMS5003;50435;43.700;-79.318;2024-03-23T05:14:44;4;2;
64138;PMS5003;50435;43.700;-79.318;2024-03-23T05:17:11;3;3;
64138;PMS5003;50435;43.700;-79.318;2024-03-23T05:19:39;3;3;
64138;PMS5003;50435;43.700;-79.318;2024-03-23T05:22:06;3;3;
64138;PMS5003;50435;43.700;-79.318;2024-03-23T05:24:34;4;2;
64138;PMS5003;50435;43.700;-79.318;2024-03-23T05:27:01;1;1;
64138;PMS5003;50435;43.700;-79.318;2024-03-23T05:29:29;2;2;
64138;PMS5003;50435;43.700;-79.318;2024-03-23T05:31:56;3;3;
64138;PMS5003;50435;43.700;-79.318;2024-03-23T05:34:24;2;2;
64138;PMS5003;50435;43.700;-79.318;2024-03-23T05:36:52;3;3;
64138;PMS5003;50435;43.700;-79.318;2024-03-23T05:39:19;4;3;
64138;PMS5003;50435;43.700;-79.318;2024-03-23T05:41:46;1;1;
64138;PMS5003;50435;43.700;-79.318;2024-03-23T05:44:14;3;2;
64138;PMS5003;50435;43.700;-79.318;2024-03-23T05:46:41;1;1;
64138;PMS5003;50435;43.700;-79.318;2024-03-23T05:49:09;3;3;
64138;PMS5003;50435;43.700;-79.318;2024-03-23T05:51:36;1;1;
64138;PMS5003;50435;43.700;-79.318;2024-03-23T05:54:03;4;3;
64138;PMS5003;50435;43.700;-79.318;2024-03-23T05:56:31;2;2;
64138;PMS5003;50435;43.700;-79.318;2024-03-23T05:58:58;1;1;
64138;PMS5003;50435;43.700;-79.318;2024-03-23T06:01:26;2;2;
64138;PMS5003;50435;43.700;-79.318;2024-03-23T06:03:53;2;2;
64138;PMS5003;50435;43.700;-79.318;2024-03-23T06:06:21;1;1;
64138;PMS5003;50435;43.700;-79.318;2024-03-23T06:08:48;2;2;
64138;PMS5003;50435;43.700;-79.318;2024-03-23T06:11:16;1;1;
64138;PMS5003;50435;43.700;-79.318;2024-03-23T06:13:43;1;1;
64138;PMS5003;50435;43.700;-79.318;2024-03-23T06:16:10;6;2;
64138;PMS5003;50435;43.700;-79.318;2024-03-23T06:18:39;1;1;
64138;PMS5003;50435;43.700;-79.318;2024-03-23T06:21:12;4;3;
64138;PMS5003;50435;43.700;-79.318;2024-03-23T06:23:41;3;3;
64138;PMS5003;50435;43.700;-79.318;2024-03-23T06:26:08;2;2;
64138;PMS5003;50435;43.700;-79.318;2024-03-23T06:28:36;1;1;
64138;PMS5003;50435;43.700;-79.318;2024-03-23T06:31:06;1;1;
64138;PMS5003;50435;43.700;-79.318;2024-03-23T06:33:36;3;2;
64138;PMS5003;50435;43.700;-79.318;2024-03-23T06:36:04;1;1;
64138;PMS5003;50435;43.700;-79.318;2024-03-23T06:38:32;1;1;
64138;PMS5003;50435;43.700;-79.318;2024-03-23T06:40:59;1;1;
64138;PMS5003;50435;43.700;-79.318;2024-03-23T06:43:29;1;1;
64138;PMS5003;50435;43.700;-79.318;2024-03-23T06:45:57;2;2;
64138;PMS5003;50435;43.700;-79.318;2024-03-23T06:48:24;3;2;
64138;PMS5003;50435;43.700;-79.318;2024-03-23T06:50:55;1;1;
64138;PMS5003;50435;43.700;-79.318;2024-03-23T06:53:23;2;2;
64138;PMS5003;50435;43.700;-79.318;2024-03-23T06:55:51;1;1;
64138;PMS5003;50435;43.700;-79.318;2024-03-23T06:58:20;3;2;
64138;PMS5003;50435;43.700;-79.318;2024-03-23T07:00:48;1;1;
64138;PMS5003;50435;43.700;-79.318;2024-03-23T07:03:16;2;2;
64138;PMS5003;50435;43.700;-79.318;2024-03-23T07:05:43;2;2;
64138;PMS5003;50435;43.700;-79.318;2024-03-23T07:08:10;1;1;
64138;PMS5003;50435;43.700;-79.318;2024-03-23T07:10:39;2;2;
64138;PMS5003;50435;43.700;-79.318;2024-03-23T07:13:06;3;3;
64138;PMS5003;50435;43.700;-79.318;2024-03-23T07:15:34;2;2;
64138;PMS5003;50435;43.700;-79.318;2024-03-23T07:18:01;0;0;
64138;PMS5003;50435;43.700;-79.318;2024-03-23T07:20:29;2;2;
64138;PMS5003;50435;43.700;-79.318;2024-03-23T07:22:56;1;1;
64138;PMS5003;50435;43.700;-79.318;2024-03-23T07:25:24;1;1;
64138;PMS5003;50435;43.700;-79.318;2024-03-23T07:27:52;1;1;
64138;PMS5003;50435;43.700;-79.318;2024-03-23T07:30:20;1;1;
64138;PMS5003;50435;43.700;-79.318;2024-03-23T07:32:48;2;1;
64138;PMS5003;50435;43.700;-79.318;2024-03-23T07:35:15;2;2;
64138;PMS5003;50435;43.700;-79.318;2024-03-23T07:37:43;2;2;
64138;PMS5003;50435;43.700;-79.318;2024-03-23T07:40:11;2;1;
64138;PMS5003;50435;43.700;-79.318;2024-03-23T07:42:39;3;3;
64138;PMS5003;50435;43.700;-79.318;2024-03-23T07:45:06;2;2;
64138;PMS5003;50435;43.700;-79.318;2024-03-23T07:47:34;2;2;
64138;PMS5003;50435;43.700;-79.318;2024-03-23T07:50:02;6;2;
64138;PMS5003;50435;43.700;-79.318;2024-03-23T07:52:29;2;2;
64138;PMS5003;50435;43.700;-79.318;2024-03-23T07:54:57;2;2;
64138;PMS5003;50435;43.700;-79.318;2024-03-23T07:57:24;2;2;
64138;PMS5003;50435;43.700;-79.318;2024-03-23T07:59:52;2;2;
64138;PMS5003;50435;43.700;-79.318;2024-03-23T08:02:19;1;1;
64138;PMS5003;50435;43.700;-79.318;2024-03-23T08:04:47;2;2;
64138;PMS5003;50435;43.700;-79.318;2024-03-23T08:07:14;2;2;
64138;PMS5003;50435;43.700;-79.318;2024-03-23T08:09:42;1;1;
64138;PMS5003;50435;43.700;-79.318;2024-03-23T08:12:10;3;3;
64138;PMS5003;50435;43.700;-79.318;2024-03-23T08:14:38;3;3;
64138;PMS5003;50435;43.700;-79.318;2024-03-23T08:17:05;2;2;
64138;PMS5003;50435;43.700;-79.318;2024-03-23T08:19:33;2;1;
64138;PMS5003;50435;43.700;-79.318;2024-03-23T08:22:00;1;1;
64138;PMS5003;50435;43.700;-79.318;2024-03-23T08:24:28;1;1;
64138;PMS5003;50435;43.700;-79.318;2024-03-23T08:26:55;1;1;
64138;PMS5003;50435;43.700;-79.318;2024-03-23T08:29:22;1;1;
64138;PMS5003;50435;43.700;-79.318;2024-03-23T08:31:50;3;2;
64138;PMS5003;50435;43.700;-79.318;2024-03-23T08:34:17;2;2;
64138;PMS5003;50435;43.700;-79.318;2024-03-23T08:36:45;3;3;
64138;PMS5003;50435;43.700;-79.318;2024-03-23T08:39:13;2;2;
64138;PMS5003;50435;43.700;-79.318;2024-03-23T08:41:41;2;2;
64138;PMS5003;50435;43.700;-79.318;2024-03-23T08:44:08;3;3;
64138;PMS5003;50435;43.700;-79.318;2024-03-23T08:46:36;3;2;
64138;PMS5003;50435;43.700;-79.318;2024-03-23T08:49:03;4;3;
64138;PMS5003;50435;43.700;-79.318;2024-03-23T08:51:31;1;1;
64138;PMS5003;50435;43.700;-79.318;2024-03-23T08:53:58;3;2;
64138;PMS5003;50435;43.700;-79.318;2024-03-23T08:56:25;7;2;
64138;PMS5003;50435;43.700;-79.318;2024-03-23T08:58:53;1;1;
64138;PMS5003;50435;43.700;-79.318;2024-03-23T09:01:20;3;3;
64138;PMS5003;50435;43.700;-79.318;2024-03-23T09:03:48;6;6;
64138;PMS5003;50435;43.700;-79.318;2024-03-23T09:06:15;3;2;
64138;PMS5003;50435;43.700;-79.318;2024-03-23T09:08:43;3;2;
64138;PMS5003;50435;43.700;-79.318;2024-03-23T09:11:11;2;2;
64138;PMS5003;50435;43.700;-79.318;2024-03-23T09:13:39;2;2;
64138;PMS5003;50435;43.700;-79.318;2024-03-23T09:16:07;1;1;
64138;PMS5003;50435;43.700;-79.318;2024-03-23T09:18:35;2;2;
64138;PMS5003;50435;43.700;-79.318;2024-03-23T09:21:03;3;3;
64138;PMS5003;50435;43.700;-79.318;2024-03-23T09:23:37;1;1;
64138;PMS5003;50435;43.700;-79.318;2024-03-23T09:26:05;1;1;
64138;PMS5003;50435;43.700;-79.318;2024-03-23T09:28:32;1;1;
64138;PMS5003;50435;43.700;-79.318;2024-03-23T09:31:02;3;2;
64138;PMS5003;50435;43.700;-79.318;2024-03-23T09:33:30;2;1;
64138;PMS5003;50435;43.700;-79.318;2024-03-23T09:35:57;0;0;
64138;PMS5003;50435;43.700;-79.318;2024-03-23T09:38:26;2;2;
64138;PMS5003;50435;43.700;-79.318;2024-03-23T09:40:54;1;1;
64138;PMS5003;50435;43.700;-79.318;2024-03-23T09:43:22;1;1;
64138;PMS5003;50435;43.700;-79.318;2024-03-23T09:45:49;1;1;
64138;PMS5003;50435;43.700;-79.318;2024-03-23T09:48:17;2;1;
64138;PMS5003;50435;43.700;-79.318;2024-03-23T09:50:45;3;2;
64138;PMS5003;50435;43.700;-79.318;2024-03-23T09:53:13;1;1;
64138;PMS5003;50435;43.700;-79.318;2024-03-23T09:55:42;1;1;
64138;PMS5003;50435;43.700;-79.318;2024-03-23T09:58:12;2;2;
64138;PMS5003;50435;43.700;-79.318;2024-03-23T10:00:40;1;1;
64138;PMS5003;50435;43.700;-79.318;2024-03-23T10:03:07;1;1;
64138;PMS5003;50435;43.700;-79.318;2024-03-23T10:05:35;0;0;
64138;PMS5003;50435;43.700;-79.318;2024-03-23T10:08:03;1;1;
64138;PMS5003;50435;43.700;-79.318;2024-03-23T10:10:45;4;3;
64138;PMS5003;50435;43.700;-79.318;2024-03-23T10:13:23;1;1;
64138;PMS5003;50435;43.700;-79.318;2024-03-23T10:15:58;1;1;
64138;PMS5003;50435;43.700;-79.318;2024-03-23T10:18:26;1;1;
64138;PMS5003;50435;43.700;-79.318;2024-03-23T10:21:06;2;2;
64138;PMS5003;50435;43.700;-79.318;2024-03-23T10:23:34;2;2;
64138;PMS5003;50435;43.700;-79.318;2024-03-23T10:26:19;1;1;
64138;PMS5003;50435;43.700;-79.318;2024-03-23T10:28:51;2;2;
64138;PMS5003;50435;43.700;-79.318;2024-03-23T10:31:20;2;2;
64138;PMS5003;50435;43.700;-79.318;2024-03-23T10:33:48;4;2;
64138;PMS5003;50435;43.700;-79.318;2024-03-23T10:36:16;0;0;
64138;PMS5003;50435;43.700;-79.318;2024-03-23T10:38:45;2;2;
64138;PMS5003;50435;43.700;-79.318;2024-03-23T10:41:14;1;1;
64138;PMS5003;50435;43.700;-79.318;2024-03-23T10:43:42;1;1;
64138;PMS5003;50435;43.700;-79.318;2024-03-23T10:46:12;2;1;
64138;PMS5003;50435;43.700;-79.318;2024-03-23T10:48:39;2;2;
64138;PMS5003;50435;43.700;-79.318;2024-03-23T10:51:07;1;1;
64138;PMS5003;50435;43.700;-79.318;2024-03-23T10:53:36;3;1;
64138;PMS5003;50435;43.700;-79.318;2024-03-23T10:56:04;1;1;
64138;PMS5003;50435;43.700;-79.318;2024-03-23T10:58:36;1;1;
64138;PMS5003;50435;43.700;-79.318;2024-03-23T11:01:05;1;1;
64138;PMS5003;50435;43.700;-79.318;2024-03-23T11:03:33;1;1;
64138;PMS5003;50435;43.700;-79.318;2024-03-23T11:06:03;1;1;
64138;PMS5003;50435;43.700;-79.318;2024-03-23T11:08:32;1;1;
64138;PMS5003;50435;43.700;-79.318;2024-03-23T11:11:12;1;1;
64138;PMS5003;50435;43.700;-79.318;2024-03-23T11:13:44;2;2;
64138;PMS5003;50435;43.700;-79.318;2024-03-23T11:16:15;2;2;
64138;PMS5003;50435;43.700;-79.318;2024-03-23T11:18:43;2;2;
64138;PMS5003;50435;43.700;-79.318;2024-03-23T11:21:11;1;1;
64138;PMS5003;50435;43.700;-79.318;2024-03-23T11:24:19;3;3;
64138;PMS5003;50435;43.700;-79.318;2024-03-23T11:26:47;2;2;
64138;PMS5003;50435;43.700;-79.318;2024-03-23T11:29:16;1;1;
64138;PMS5003;50435;43.700;-79.318;2024-03-23T11:31:45;1;1;
64138;PMS5003;50435;43.700;-79.318;2024-03-23T11:34:13;2;2;
64138;PMS5003;50435;43.700;-79.318;2024-03-23T11:36:42;2;2;
64138;PMS5003;50435;43.700;-79.318;2024-03-23T11:39:13;0;0;
64138;PMS5003;50435;43.700;-79.318;2024-03-23T11:41:48;0;0;
64138;PMS5003;50435;43.700;-79.318;2024-03-23T11:44:18;2;2;
64138;PMS5003;50435;43.700;-79.318;2024-03-23T11:46:47;3;1;
64138;PMS5003;50435;43.700;-79.318;2024-03-23T11:49:23;5;2;
64138;PMS5003;50435;43.700;-79.318;2024-03-23T11:51:53;2;2;
64138;PMS5003;50435;43.700;-79.318;2024-03-23T11:54:22;3;2;
64138;PMS5003;50435;43.700;-79.318;2024-03-23T11:56:54;2;1;
64138;PMS5003;50435;43.700;-79.318;2024-03-23T11:59:30;1;1;
64138;PMS5003;50435;43.700;-79.318;2024-03-23T12:02:05;1;1;
64138;PMS5003;50435;43.700;-79.318;2024-03-23T12:04:33;1;1;
64138;PMS5003;50435;43.700;-79.318;2024-03-23T12:07:17;5;5;
64138;PMS5003;50435;43.700;-79.318;2024-03-23T12:09:46;1;1;
64138;PMS5003;50435;43.700;-79.318;2024-03-23T12:12:14;1;1;
64138;PMS5003;50435;43.700;-79.318;2024-03-23T12:14:42;2;2;
64138;PMS5003;50435;43.700;-79.318;2024-03-23T12:17:11;3;2;
64138;PMS5003;50435;43.700;-79.318;2024-03-23T12:19:39;1;1;
64138;PMS5003;50435;43.700;-79.318;2024-03-23T12:22:07;3;3;
64138;PMS5003;50435;43.700;-79.318;2024-03-23T12:24:35;3;3;
64138;PMS5003;50435;43.700;-79.318;2024-03-23T12:27:03;1;1;
64138;PMS5003;50435;43.700;-79.318;2024-03-23T12:29:31;1;1;
64138;PMS5003;50435;43.700;-79.318;2024-03-23T12:31:59;1;1;
64138;PMS5003;50435;43.700;-79.318;2024-03-23T12:34:27;5;2;
64138;PMS5003;50435;43.700;-79.318;2024-03-23T12:36:55;5;5;
64138;PMS5003;50435;43.700;-79.318;2024-03-23T12:39:22;2;2;
64138;PMS5003;50435;43.700;-79.318;2024-03-23T12:41:50;1;1;
64138;PMS5003;50435;43.700;-79.318;2024-03-23T12:44:18;2;2;
64138;PMS5003;50435;43.700;-79.318;2024-03-23T12:46:45;2;2;
64138;PMS5003;50435;43.700;-79.318;2024-03-23T12:49:13;3;3;
64138;PMS5003;50435;43.700;-79.318;2024-03-23T12:51:41;3;2;
64138;PMS5003;50435;43.700;-79.318;2024-03-23T12:54:19;2;2;
64138;PMS5003;50435;43.700;-79.318;2024-03-23T12:56:46;1;1;
64138;PMS5003;50435;43.700;-79.318;2024-03-23T12:59:14;2;2;
64138;PMS5003;50435;43.700;-79.318;2024-03-23T13:01:42;2;2;
64138;PMS5003;50435;43.700;-79.318;2024-03-23T13:04:09;1;1;
64138;PMS5003;50435;43.700;-79.318;2024-03-23T13:06:36;1;1;
64138;PMS5003;50435;43.700;-79.318;2024-03-23T13:09:04;2;2;
64138;PMS5003;50435;43.700;-79.318;2024-03-23T13:11:31;2;2;
64138;PMS5003;50435;43.700;-79.318;2024-03-23T13:13:59;1;1;
64138;PMS5003;50435;43.700;-79.318;2024-03-23T13:16:26;3;1;
64138;PMS5003;50435;43.700;-79.318;2024-03-23T13:18:54;1;1;
64138;PMS5003;50435;43.700;-79.318;2024-03-23T13:21:21;1;1;
64138;PMS5003;50435;43.700;-79.318;2024-03-23T13:23:49;5;1;
64138;PMS5003;50435;43.700;-79.318;2024-03-23T13:26:16;2;2;
64138;PMS5003;50435;43.700;-79.318;2024-03-23T13:28:44;2;1;
64138;PMS5003;50435;43.700;-79.318;2024-03-23T13:31:11;1;1;
64138;PMS5003;50435;43.700;-79.318;2024-03-23T13:33:39;1;1;
64138;PMS5003;50435;43.700;-79.318;2024-03-23T13:36:07;1;1;
64138;PMS5003;50435;43.700;-79.318;2024-03-23T13:38:35;0;0;
64138;PMS5003;50435;43.700;-79.318;2024-03-23T13:41:02;2;1;
64138;PMS5003;50435;43.700;-79.318;2024-03-23T13:43:30;1;1;
64138;PMS5003;50435;43.700;-79.318;2024-03-23T13:45:58;2;2;
64138;PMS5003;50435;43.700;-79.318;2024-03-23T13:48:26;1;1;
64138;PMS5003;50435;43.700;-79.318;2024-03-23T13:50:57;3;1;
64138;PMS5003;50435;43.700;-79.318;2024-03-23T13:53:25;1;1;
64138;PMS5003;50435;43.700;-79.318;2024-03-23T13:55:53;1;1;
64138;PMS5003;50435;43.700;-79.318;2024-03-23T13:58:20;1;1;
64138;PMS5003;50435;43.700;-79.318;2024-03-23T14:00:48;2;2;
64138;PMS5003;50435;43.700;-79.318;2024-03-23T14:03:16;1;1;
64138;PMS5003;50435;43.700;-79.318;2024-03-23T14:05:43;2;1;
64138;PMS5003;50435;43.700;-79.318;2024-03-23T14:08:12;1;1;
64138;PMS5003;50435;43.700;-79.318;2024-03-23T14:10:40;1;1;
64138;PMS5003;50435;43.700;-79.318;2024-03-23T14:13:07;2;1;
64138;PMS5003;50435;43.700;-79.318;2024-03-23T14:15:35;2;1;
64138;PMS5003;50435;43.700;-79.318;2024-03-23T14:18:02;2;2;
64138;PMS5003;50435;43.700;-79.318;2024-03-23T14:20:30;4;3;
64138;PMS5003;50435;43.700;-79.318;2024-03-23T14:22:57;2;2;
64138;PMS5003;50435;43.700;-79.318;2024-03-23T14:25:25;1;1;
64138;PMS5003;50435;43.700;-79.318;2024-03-23T14:27:52;1;0;
64138;PMS5003;50435;43.700;-79.318;2024-03-23T14:30:20;1;1;
64138;PMS5003;50435;43.700;-79.318;2024-03-23T14:32:48;1;1;
64138;PMS5003;50435;43.700;-79.318;2024-03-23T14:35:16;0;0;
64138;PMS5003;50435;43.700;-79.318;2024-03-23T14:37:43;1;1;
64138;PMS5003;50435;43.700;-79.318;2024-03-23T14:40:11;1;1;
64138;PMS5003;50435;43.700;-79.318;2024-03-23T14:42:38;2;2;
64138;PMS5003;50435;43.700;-79.318;2024-03-23T14:45:06;0;0;
64138;PMS5003;50435;43.700;-79.318;2024-03-23T14:47:34;1;1;
64138;PMS5003;50435;43.700;-79.318;2024-03-23T14:50:01;1;1;
64138;PMS5003;50435;43.700;-79.318;2024-03-23T14:52:29;1;1;
64138;PMS5003;50435;43.700;-79.318;2024-03-23T14:54:56;1;0;
64138;PMS5003;50435;43.700;-79.318;2024-03-23T14:57:24;3;2;
64138;PMS5003;50435;43.700;-79.318;2024-03-23T14:59:51;0;0;
64138;PMS5003;50435;43.700;-79.318;2024-03-23T15:02:18;1;1;
64138;PMS5003;50435;43.700;-79.318;2024-03-23T15:04:46;0;0;
64138;PMS5003;50435;43.700;-79.318;2024-03-23T15:07:13;1;1;
64138;PMS5003;50435;43.700;-79.318;2024-03-23T15:09:41;0;0;
64138;PMS5003;50435;43.700;-79.318;2024-03-23T15:12:08;1;1;
64138;PMS5003;50435;43.700;-79.318;2024-03-23T15:14:36;0;0;
64138;PMS5003;50435;43.700;-79.318;2024-03-23T15:17:03;1;1;
64138;PMS5003;50435;43.700;-79.318;2024-03-23T15:19:30;1;1;
64138;PMS5003;50435;43.700;-79.318;2024-03-23T15:21:58;0;0;
64138;PMS5003;50435;43.700;-79.318;2024-03-23T15:24:25;0;0;
64138;PMS5003;50435;43.700;-79.318;2024-03-23T15:26:53;1;0;
64138;PMS5003;50435;43.700;-79.318;2024-03-23T15:29:20;0;0;
64138;PMS5003;50435;43.700;-79.318;2024-03-23T15:31:48;1;1;
64138;PMS5003;50435;43.700;-79.318;2024-03-23T15:34:15;1;1;
64138;PMS5003;50435;43.700;-79.318;2024-03-23T15:36:42;1;1;
64138;PMS5003;50435;43.700;-79.318;2024-03-23T15:39:10;2;2;
64138;PMS5003;50435;43.700;-79.318;2024-03-23T15:41:37;3;2;
64138;PMS5003;50435;43.700;-79.318;2024-03-23T15:44:05;0;0;
64138;PMS5003;50435;43.700;-79.318;2024-03-23T15:46:32;0;0;
64138;PMS5003;50435;43.700;-79.318;2024-03-23T15:49:00;1;1;
64138;PMS5003;50435;43.700;-79.318;2024-03-23T15:51:28;1;1;
64138;PMS5003;50435;43.700;-79.318;2024-03-23T15:53:55;1;1;
64138;PMS5003;50435;43.700;-79.318;2024-03-23T15:56:23;1;1;
64138;PMS5003;50435;43.700;-79.318;2024-03-23T15:58:50;1;1;
64138;PMS5003;50435;43.700;-79.318;2024-03-23T16:01:17;3;1;
64138;PMS5003;50435;43.700;-79.318;2024-03-23T16:03:45;1;1;
64138;PMS5003;50435;43.700;-79.318;2024-03-23T16:06:12;3;1;
64138;PMS5003;50435;43.700;-79.318;2024-03-23T16:08:40;1;1;
64138;PMS5003;50435;43.700;-79.318;2024-03-23T16:11:07;2;2;
64138;PMS5003;50435;43.700;-79.318;2024-03-23T16:13:34;1;1;
64138;PMS5003;50435;43.700;-79.318;2024-03-23T16:16:02;2;2;
64138;PMS5003;50435;43.700;-79.318;2024-03-23T16:18:31;1;1;
64138;PMS5003;50435;43.700;-79.318;2024-03-23T16:20:59;1;1;
64138;PMS5003;50435;43.700;-79.318;2024-03-23T16:23:27;3;2;
64138;PMS5003;50435;43.700;-79.318;2024-03-23T16:25:56;1;1;
64138;PMS5003;50435;43.700;-79.318;2024-03-23T16:28:24;3;2;
64138;PMS5003;50435;43.700;-79.318;2024-03-23T16:30:53;1;1;
64138;PMS5003;50435;43.700;-79.318;2024-03-23T16:33:22;3;2;
64138;PMS5003;50435;43.700;-79.318;2024-03-23T16:35:57;2;2;
64138;PMS5003;50435;43.700;-79.318;2024-03-23T16:38:26;3;3;
64138;PMS5003;50435;43.700;-79.318;2024-03-23T16:40:58;2;2;
64138;PMS5003;50435;43.700;-79.318;2024-03-23T16:43:26;3;2;
64138;PMS5003;50435;43.700;-79.318;2024-03-23T16:45:56;3;3;
64138;PMS5003;50435;43.700;-79.318;2024-03-23T16:48:24;2;2;
64138;PMS5003;50435;43.700;-79.318;2024-03-23T16:50:56;4;2;
64138;PMS5003;50435;43.700;-79.318;2024-03-23T16:53:24;2;2;
64138;PMS5003;50435;43.700;-79.318;2024-03-23T16:55:54;1;1;
64138;PMS5003;50435;43.700;-79.318;2024-03-23T16:58:23;2;2;
64138;PMS5003;50435;43.700;-79.318;2024-03-23T17:00:51;3;3;
64138;PMS5003;50435;43.700;-79.318;2024-03-23T17:03:19;2;2;
64138;PMS5003;50435;43.700;-79.318;2024-03-23T17:05:46;2;2;
64138;PMS5003;50435;43.700;-79.318;2024-03-23T17:08:13;2;2;
64138;PMS5003;50435;43.700;-79.318;2024-03-23T17:10:41;2;2;
64138;PMS5003;50435;43.700;-79.318;2024-03-23T17:13:08;2;2;
64138;PMS5003;50435;43.700;-79.318;2024-03-23T17:15:41;2;2;